sensor_id;sensor_type;location;lat;lon;timestamp;pressure;altitude;pressure_sealevel;temperature;humidity
26043;BME280;13818;52.156;5.382;2023-02-22T00:01:18;101309.28;;;7.30;100.00
26043;BME280;13818;52.156;5.382;2023-02-22T00:03:53;101312.84;;;7.29;100.00
26043;BME280;13818;52.156;5.382;2023-02-22T00:06:21;101300.28;;;7.38;100.00
26043;BME280;13818;52.156;5.382;2023-02-22T00:08:50;101300.28;;;7.38;100.00
26043;BME280;13818;52.156;5.382;2023-02-22T00:11:18;101311.94;;;7.30;100.00
26043;BME280;13818;52.156;5.382;2023-02-22T00:13:45;101312.22;;;7.18;100.00
26043;BME280;13818;52.156;5.382;2023-02-22T00:16:16;101308.72;;;7.18;100.00
26043;BME280;13818;52.156;5.382;2023-02-22T00:18:43;101305.47;;;7.06;100.00
26043;BME280;13818;52.156;5.382;2023-02-22T00:21:13;101304.66;;;7.03;100.00
26043;BME280;13818;52.156;5.382;2023-02-22T00:23:41;101311.56;;;7.10;100.00
26043;BME280;13818;52.156;5.382;2023-02-22T00:26:12;101307.94;;;7.14;100.00
26043;BME280;13818;52.156;5.382;2023-02-22T00:28:43;101303.38;;;7.19;100.00
26043;BME280;13818;52.156;5.382;2023-02-22T00:31:09;101309.63;;;7.16;100.00
26043;BME280;13818;52.156;5.382;2023-02-22T00:33:37;101308.69;;;7.19;100.00
26043;BME280;13818;52.156;5.382;2023-02-22T00:36:04;101310.38;;;7.22;100.00
26043;BME280;13818;52.156;5.382;2023-02-22T00:38:32;101312.22;;;7.18;100.00
26043;BME280;13818;52.156;5.382;2023-02-22T00:40:59;101309.47;;;7.23;100.00
26043;BME280;13818;52.156;5.382;2023-02-22T00:43:25;101303.38;;;7.19;100.00
26043;BME280;13818;52.156;5.382;2023-02-22T00:45:52;101293.78;;;7.15;100.00
26043;BME280;13818;52.156;5.382;2023-02-22T00:48:19;101300.91;;;7.11;100.00
26043;BME280;13818;52.156;5.382;2023-02-22T00:50:45;101295.69;;;7.08;100.00
26043;BME280;13818;52.156;5.382;2023-02-22T00:53:13;101291.19;;;7.12;100.00
26043;BME280;13818;52.156;5.382;2023-02-22T00:55:41;101293.78;;;7.13;100.00
26043;BME280;13818;52.156;5.382;2023-02-22T00:58:08;101284.97;;;7.13;100.00
26043;BME280;13818;52.156;5.382;2023-02-22T01:00:37;101279.56;;;7.18;100.00
26043;BME280;13818;52.156;5.382;2023-02-22T01:03:08;101286.03;;;7.06;100.00
26043;BME280;13818;52.156;5.382;2023-02-22T01:05:36;101273.66;;;7.06;100.00
26043;BME280;13818;52.156;5.382;2023-02-22T01:08:03;101277.31;;;7.00;100.00
26043;BME280;13818;52.156;5.382;2023-02-22T01:10:31;101264.84;;;7.04;100.00
26043;BME280;13818;52.156;5.382;2023-02-22T01:13:00;101276.31;;;7.05;100.00
26043;BME280;13818;52.156;5.382;2023-02-22T01:15:29;101275.41;;;7.06;100.00
26043;BME280;13818;52.156;5.382;2023-02-22T01:17:57;101272.84;;;7.03;100.00
26043;BME280;13818;52.156;5.382;2023-02-22T01:20:25;101262.97;;;7.09;100.00
26043;BME280;13818;52.156;5.382;2023-02-22T01:22:53;101269.31;;;7.02;100.00
26043;BME280;13818;52.156;5.382;2023-02-22T01:25:22;101256.06;;;7.04;100.00
26043;BME280;13818;52.156;5.382;2023-02-22T01:27:51;101267.50;;;7.04;100.00
26043;BME280;13818;52.156;5.382;2023-02-22T01:30:20;101261.25;;;7.07;100.00
26043;BME280;13818;52.156;5.382;2023-02-22T01:32:49;101255.06;;;7.08;100.00
26043;BME280;13818;52.156;5.382;2023-02-22T01:35:20;101259.41;;;7.10;100.00
26043;BME280;13818;52.156;5.382;2023-02-22T01:37:46;101256.66;;;7.13;100.00
26043;BME280;13818;52.156;5.382;2023-02-22T01:40:20;101251.38;;;7.13;100.00
26043;BME280;13818;52.156;5.382;2023-02-22T01:42:50;101252.22;;;7.15;100.00
26043;BME280;13818;52.156;5.382;2023-02-22T01:45:50;101240.91;;;7.07;100.00
26043;BME280;13818;52.156;5.382;2023-02-22T01:48:21;101237.34;;;7.08;100.00
26043;BME280;13818;52.156;5.382;2023-02-22T01:50:53;101246.84;;;7.17;100.00
26043;BME280;13818;52.156;5.382;2023-02-22T01:53:22;101236.31;;;7.15;100.00
26043;BME280;13818;52.156;5.382;2023-02-22T01:55:51;101230.34;;;7.06;100.00
26043;BME280;13818;52.156;5.382;2023-02-22T01:58:20;101241.09;;;6.99;100.00
26043;BME280;13818;52.156;5.382;2023-02-22T02:00:50;101241.91;;;7.03;100.00
26043;BME280;13818;52.156;5.382;2023-02-22T02:03:20;101244.91;;;6.89;100.00
26043;BME280;13818;52.156;5.382;2023-02-22T02:05:49;101243.09;;;6.91;100.00
26043;BME280;13818;52.156;5.382;2023-02-22T02:08:38;101233.63;;;6.81;100.00
26043;BME280;13818;52.156;5.382;2023-02-22T02:11:08;101227.53;;;6.77;100.00
26043;BME280;13818;52.156;5.382;2023-02-22T02:13:35;101219.72;;;6.71;100.00
26043;BME280;13818;52.156;5.382;2023-02-22T02:16:04;101217.88;;;6.75;100.00
26043;BME280;13818;52.156;5.382;2023-02-22T02:18:30;101206.41;;;6.74;100.00
26043;BME280;13818;52.156;5.382;2023-02-22T02:21:17;101210.53;;;6.86;100.00
26043;BME280;13818;52.156;5.382;2023-02-22T02:24:06;101218.03;;;6.68;100.00
26043;BME280;13818;52.156;5.382;2023-02-22T02:27:01;101207.50;;;6.65;100.00
26043;BME280;13818;52.156;5.382;2023-02-22T02:29:53;101210.19;;;6.64;100.00
26043;BME280;13818;52.156;5.382;2023-02-22T02:32:34;101204.81;;;6.67;100.00
26043;BME280;13818;52.156;5.382;2023-02-22T02:35:09;101207.56;;;6.62;100.00
26043;BME280;13818;52.156;5.382;2023-02-22T02:37:46;101207.56;;;6.62;100.00
26043;BME280;13818;52.156;5.382;2023-02-22T02:40:19;101200.19;;;6.75;100.00
26043;BME280;13818;52.156;5.382;2023-02-22T02:42:52;101193.94;;;6.78;100.00
26043;BME280;13818;52.156;5.382;2023-02-22T02:45:22;101187.69;;;6.80;100.00
26043;BME280;13818;52.156;5.382;2023-02-22T02:47:54;101180.09;;;6.66;100.00
26043;BME280;13818;52.156;5.382;2023-02-22T02:50:26;101183.13;;;6.51;100.00
26043;BME280;13818;52.156;5.382;2023-02-22T02:52:58;101183.19;;;6.48;100.00
26043;BME280;13818;52.156;5.382;2023-02-22T02:55:27;101170.75;;;6.51;100.00
26043;BME280;13818;52.156;5.382;2023-02-22T02:57:54;101175.19;;;6.51;100.00
26043;BME280;13818;52.156;5.382;2023-02-22T03:00:25;101170.13;;;6.42;100.00
26043;BME280;13818;52.156;5.382;2023-02-22T03:03:06;101176.31;;;6.39;100.00
26043;BME280;13818;52.156;5.382;2023-02-22T03:05:46;101171.88;;;6.41;100.00
26043;BME280;13818;52.156;5.382;2023-02-22T03:08:23;101165.25;;;6.61;100.00
26043;BME280;13818;52.156;5.382;2023-02-22T03:10:59;101170.59;;;6.58;100.00
26043;BME280;13818;52.156;5.382;2023-02-22T03:13:34;101161.69;;;6.60;100.00
26043;BME280;13818;52.156;5.382;2023-02-22T03:16:13;101162.97;;;6.44;100.00
26043;BME280;13818;52.156;5.382;2023-02-22T03:18:49;101158.38;;;6.52;100.00
26043;BME280;13818;52.156;5.382;2023-02-22T03:21:23;101162.59;;;6.59;100.00
26043;BME280;13818;52.156;5.382;2023-02-22T03:24:00;101163.75;;;6.49;100.00
26043;BME280;13818;52.156;5.382;2023-02-22T03:26:34;101159.00;;;6.63;100.00
26043;BME280;13818;52.156;5.382;2023-02-22T03:29:03;101155.69;;;6.54;100.00
26043;BME280;13818;52.156;5.382;2023-02-22T03:31:32;101148.09;;;6.40;100.00
26043;BME280;13818;52.156;5.382;2023-02-22T03:34:05;101149.31;;;6.25;100.00
26043;BME280;13818;52.156;5.382;2023-02-22T03:36:35;101152.00;;;6.23;100.00
26043;BME280;13818;52.156;5.382;2023-02-22T03:39:07;101147.88;;;6.10;100.00
26043;BME280;13818;52.156;5.382;2023-02-22T03:41:37;101146.25;;;6.04;100.00
26043;BME280;13818;52.156;5.382;2023-02-22T03:44:07;101145.38;;;6.03;100.00
26043;BME280;13818;52.156;5.382;2023-02-22T03:46:37;101144.44;;;6.06;100.00
26043;BME280;13818;52.156;5.382;2023-02-22T03:49:09;101140.19;;;5.97;100.00
26043;BME280;13818;52.156;5.382;2023-02-22T03:51:37;101137.50;;;6.00;100.00
26043;BME280;13818;52.156;5.382;2023-02-22T03:54:05;101138.78;;;5.81;100.00
26043;BME280;13818;52.156;5.382;2023-02-22T03:56:34;101125.38;;;5.89;100.00
26043;BME280;13818;52.156;5.382;2023-02-22T03:59:04;101131.84;;;5.75;100.00
26043;BME280;13818;52.156;5.382;2023-02-22T04:01:32;101133.47;;;5.81;100.00
26043;BME280;13818;52.156;5.382;2023-02-22T04:03:59;101131.59;;;5.86;100.00
26043;BME280;13818;52.156;5.382;2023-02-22T04:06:28;101120.13;;;5.87;100.00
26043;BME280;13818;52.156;5.382;2023-02-22T04:08:54;101131.50;;;5.91;100.00
26043;BME280;13818;52.156;5.382;2023-02-22T04:11:21;101125.50;;;5.84;100.00
26043;BME280;13818;52.156;5.382;2023-02-22T04:13:48;101126.59;;;5.74;100.00
26043;BME280;13818;52.156;5.382;2023-02-22T04:16:14;101117.72;;;5.76;100.00
26043;BME280;13818;52.156;5.382;2023-02-22T04:18:41;101117.09;;;5.65;100.00
26043;BME280;13818;52.156;5.382;2023-02-22T04:21:07;101114.56;;;5.59;100.00
26043;BME280;13818;52.156;5.382;2023-02-22T04:23:35;101114.75;;;5.51;100.00
26043;BME280;13818;52.156;5.382;2023-02-22T04:26:02;101116.66;;;5.43;100.00
26043;BME280;13818;52.156;5.382;2023-02-22T04:28:29;101101.78;;;5.38;100.00
26043;BME280;13818;52.156;5.382;2023-02-22T04:30:55;101103.53;;;5.38;100.00
26043;BME280;13818;52.156;5.382;2023-02-22T04:33:22;101093.84;;;5.38;100.00
26043;BME280;13818;52.156;5.382;2023-02-22T04:35:48;101086.81;;;5.37;100.00
26043;BME280;13818;52.156;5.382;2023-02-22T04:38:16;101098.16;;;5.43;100.00
26043;BME280;13818;52.156;5.382;2023-02-22T04:40:43;101090.31;;;5.38;100.00
26043;BME280;13818;52.156;5.382;2023-02-22T04:43:10;101087.63;;;5.41;100.00
26043;BME280;13818;52.156;5.382;2023-02-22T04:45:36;101082.16;;;5.49;100.00
26043;BME280;13818;52.156;5.382;2023-02-22T04:48:03;101084.63;;;5.57;100.00
26043;BME280;13818;52.156;5.382;2023-02-22T04:50:29;101074.16;;;5.53;100.00
26043;BME280;13818;52.156;5.382;2023-02-22T04:52:56;101077.72;;;5.51;100.00
26043;BME280;13818;52.156;5.382;2023-02-22T04:55:22;101073.25;;;5.53;100.00
26043;BME280;13818;52.156;5.382;2023-02-22T04:57:50;101069.16;;;5.40;100.00
26043;BME280;13818;52.156;5.382;2023-02-22T05:00:18;101066.75;;;5.27;100.00
26043;BME280;13818;52.156;5.382;2023-02-22T05:02:46;101057.94;;;5.28;100.00
26043;BME280;13818;52.156;5.382;2023-02-22T05:05:13;101058.75;;;5.30;100.00
26043;BME280;13818;52.156;5.382;2023-02-22T05:07:40;101059.53;;;5.35;100.00
26043;BME280;13818;52.156;5.382;2023-02-22T05:10:07;101056.88;;;5.35;100.00
26043;BME280;13818;52.156;5.382;2023-02-22T05:12:33;101056.06;;;5.33;100.00
26043;BME280;13818;52.156;5.382;2023-02-22T05:15:01;101052.66;;;5.27;100.00
26043;BME280;13818;52.156;5.382;2023-02-22T05:17:28;101046.50;;;5.26;100.00
26043;BME280;13818;52.156;5.382;2023-02-22T05:19:54;101049.28;;;5.20;100.00
26043;BME280;13818;52.156;5.382;2023-02-22T05:22:21;101047.34;;;5.28;100.00
26043;BME280;13818;52.156;5.382;2023-02-22T05:24:48;101043.00;;;5.24;100.00
26043;BME280;13818;52.156;5.382;2023-02-22T05:27:16;101038.66;;;5.21;100.00
26043;BME280;13818;52.156;5.382;2023-02-22T05:29:43;101035.41;;;5.09;100.00
26043;BME280;13818;52.156;5.382;2023-02-22T05:32:11;101036.53;;;4.97;100.00
26043;BME280;13818;52.156;5.382;2023-02-22T05:34:38;101031.13;;;5.01;100.00
26043;BME280;13818;52.156;5.382;2023-02-22T05:37:04;101036.34;;;5.06;100.00
26043;BME280;13818;52.156;5.382;2023-02-22T05:39:31;101031.09;;;5.04;100.00
26043;BME280;13818;52.156;5.382;2023-02-22T05:41:57;101028.41;;;5.06;100.00
26043;BME280;13818;52.156;5.382;2023-02-22T05:44:24;101032.03;;;5.02;100.00
26043;BME280;13818;52.156;5.382;2023-02-22T05:46:52;101032.03;;;5.00;100.00
26043;BME280;13818;52.156;5.382;2023-02-22T05:49:20;101023.25;;;5.00;100.00
26043;BME280;13818;52.156;5.382;2023-02-22T05:51:46;101021.44;;;5.03;100.00
26043;BME280;13818;52.156;5.382;2023-02-22T05:54:12;101027.59;;;5.02;100.00
26043;BME280;13818;52.156;5.382;2023-02-22T05:56:39;101024.03;;;5.05;100.00
26043;BME280;13818;52.156;5.382;2023-02-22T05:59:06;101020.44;;;5.08;100.00
26043;BME280;13818;52.156;5.382;2023-02-22T06:01:32;101014.44;;;5.01;100.00
26043;BME280;13818;52.156;5.382;2023-02-22T06:03:59;101015.16;;;5.08;100.00
26043;BME280;13818;52.156;5.382;2023-02-22T06:06:27;101014.22;;;5.10;100.00
26043;BME280;13818;52.156;5.382;2023-02-22T06:08:53;101009.88;;;5.08;100.00
26043;BME280;13818;52.156;5.382;2023-02-22T06:11:20;101003.63;;;5.12;100.00
26043;BME280;13818;52.156;5.382;2023-02-22T06:13:50;100994.88;;;5.10;100.00
26043;BME280;13818;52.156;5.382;2023-02-22T06:16:17;100999.34;;;5.06;100.00
26043;BME280;13818;52.156;5.382;2023-02-22T06:18:43;100994.88;;;5.10;100.00
26043;BME280;13818;52.156;5.382;2023-02-22T06:21:11;100996.63;;;5.09;100.00
26043;BME280;13818;52.156;5.382;2023-02-22T06:23:39;100992.19;;;5.11;100.00
26043;BME280;13818;52.156;5.382;2023-02-22T06:26:05;101002.72;;;5.13;100.00
26043;BME280;13818;52.156;5.382;2023-02-22T06:28:32;100998.22;;;5.18;100.00
26043;BME280;13818;52.156;5.382;2023-02-22T06:30:58;101007.16;;;5.12;100.00
26043;BME280;13818;52.156;5.382;2023-02-22T06:33:25;101013.25;;;5.14;100.00
26043;BME280;13818;52.156;5.382;2023-02-22T06:35:51;101010.69;;;5.11;100.00
26043;BME280;13818;52.156;5.382;2023-02-22T06:38:21;101007.06;;;5.15;100.00
26043;BME280;13818;52.156;5.382;2023-02-22T06:40:49;101011.38;;;5.21;100.00
26043;BME280;13818;52.156;5.382;2023-02-22T06:43:16;101002.78;;;5.11;100.00
26043;BME280;13818;52.156;5.382;2023-02-22T06:45:43;101008.91;;;5.12;100.00
26043;BME280;13818;52.156;5.382;2023-02-22T06:48:09;101006.22;;;5.15;100.00
26043;BME280;13818;52.156;5.382;2023-02-22T06:50:36;100993.97;;;5.11;100.00
26043;BME280;13818;52.156;5.382;2023-02-22T06:53:02;100993.09;;;5.10;100.00
26043;BME280;13818;52.156;5.382;2023-02-22T06:55:30;100981.63;;;5.11;100.00
26043;BME280;13818;52.156;5.382;2023-02-22T06:58:00;100985.91;;;5.17;100.00
26043;BME280;13818;52.156;5.382;2023-02-22T07:00:28;100985.09;;;5.15;100.00
26043;BME280;13818;52.156;5.382;2023-02-22T07:02:55;100987.00;;;5.07;100.00
26043;BME280;13818;52.156;5.382;2023-02-22T07:05:24;100987.81;;;5.10;100.00
26043;BME280;13818;52.156;5.382;2023-02-22T07:07:53;100987.78;;;5.12;100.00
26043;BME280;13818;52.156;5.382;2023-02-22T07:10:23;100992.16;;;5.13;100.00
26043;BME280;13818;52.156;5.382;2023-02-22T07:12:51;100987.81;;;5.10;100.00
26043;BME280;13818;52.156;5.382;2023-02-22T07:15:20;100977.31;;;5.07;100.00
26043;BME280;13818;52.156;5.382;2023-02-22T07:17:47;100979.84;;;5.13;100.00
26043;BME280;13818;52.156;5.382;2023-02-22T07:20:14;100992.31;;;5.05;100.00
26043;BME280;13818;52.156;5.382;2023-02-22T07:22:42;100988.63;;;5.14;100.00
26043;BME280;13818;52.156;5.382;2023-02-22T07:25:09;100994.81;;;5.13;100.00
26043;BME280;13818;52.156;5.382;2023-02-22T07:27:36;100991.31;;;5.12;100.00
26043;BME280;13818;52.156;5.382;2023-02-22T07:30:04;100996.41;;;5.20;100.00
26043;BME280;13818;52.156;5.382;2023-02-22T07:32:32;100996.34;;;5.23;100.00
26043;BME280;13818;52.156;5.382;2023-02-22T07:34:59;100992.75;;;5.26;100.00
26043;BME280;13818;52.156;5.382;2023-02-22T07:37:27;100993.69;;;5.23;100.00
26043;BME280;13818;52.156;5.382;2023-02-22T07:39:54;100995.56;;;5.18;100.00
26043;BME280;13818;52.156;5.382;2023-02-22T07:42:20;100999.91;;;5.20;100.00
26043;BME280;13818;52.156;5.382;2023-02-22T07:44:48;100999.06;;;5.20;100.00
26043;BME280;13818;52.156;5.382;2023-02-22T07:47:14;101003.25;;;5.30;100.00
26043;BME280;13818;52.156;5.382;2023-02-22T07:49:42;101005.84;;;5.33;100.00
26043;BME280;13818;52.156;5.382;2023-02-22T07:52:08;101010.13;;;5.37;100.00
26043;BME280;13818;52.156;5.382;2023-02-22T07:54:36;101011.75;;;5.43;100.00
26043;BME280;13818;52.156;5.382;2023-02-22T07:57:03;101008.19;;;5.47;100.00
26043;BME280;13818;52.156;5.382;2023-02-22T07:59:30;101010.88;;;5.44;100.00
26043;BME280;13818;52.156;5.382;2023-02-22T08:01:58;101003.78;;;5.46;100.00
26043;BME280;13818;52.156;5.382;2023-02-22T08:04:24;101014.34;;;5.46;100.00
26043;BME280;13818;52.156;5.382;2023-02-22T08:06:52;101021.28;;;5.52;100.00
26043;BME280;13818;52.156;5.382;2023-02-22T08:09:20;101015.13;;;5.51;100.00
26043;BME280;13818;52.156;5.382;2023-02-22T08:11:47;101019.56;;;5.51;100.00
26043;BME280;13818;52.156;5.382;2023-02-22T08:14:14;101016.81;;;5.54;100.00
26043;BME280;13818;52.156;5.382;2023-02-22T08:16:43;101021.97;;;5.60;100.00
26043;BME280;13818;52.156;5.382;2023-02-22T08:19:10;101018.50;;;5.58;100.00
26043;BME280;13818;52.156;5.382;2023-02-22T08:21:36;101004.47;;;5.54;100.00
26043;BME280;13818;52.156;5.382;2023-02-22T08:24:05;101015.72;;;5.64;100.00
26043;BME280;13818;52.156;5.382;2023-02-22T08:26:31;101014.72;;;5.68;100.00
26043;BME280;13818;52.156;5.382;2023-02-22T08:28:58;101004.94;;;5.74;100.00
26043;BME280;13818;52.156;5.382;2023-02-22T08:31:24;101007.44;;;5.78;100.00
26043;BME280;13818;52.156;5.382;2023-02-22T08:33:51;100998.72;;;5.75;100.00
26043;BME280;13818;52.156;5.382;2023-02-22T08:36:17;101003.25;;;5.69;100.00
26043;BME280;13818;52.156;5.382;2023-02-22T08:38:44;100998.75;;;5.73;100.00
26043;BME280;13818;52.156;5.382;2023-02-22T08:41:12;101006.59;;;5.78;100.00
26043;BME280;13818;52.156;5.382;2023-02-22T08:43:39;101002.97;;;5.82;100.00
26043;BME280;13818;52.156;5.382;2023-02-22T08:46:06;101008.16;;;5.86;100.00
26043;BME280;13818;52.156;5.382;2023-02-22T08:48:32;101007.31;;;5.84;100.00
26043;BME280;13818;52.156;5.382;2023-02-22T08:50:59;101013.50;;;5.85;100.00
26043;BME280;13818;52.156;5.382;2023-02-22T08:53:25;101001.78;;;5.94;100.00
26043;BME280;13818;52.156;5.382;2023-02-22T08:55:52;101005.22;;;6.00;100.00
26043;BME280;13818;52.156;5.382;2023-02-22T08:58:20;100996.03;;;6.15;100.00
26043;BME280;13818;52.156;5.382;2023-02-22T09:00:47;100998.50;;;6.22;100.00
26043;BME280;13818;52.156;5.382;2023-02-22T09:03:14;100985.88;;;6.31;100.00
26043;BME280;13818;52.156;5.382;2023-02-22T09:05:40;100983.13;;;6.36;100.00
26043;BME280;13818;52.156;5.382;2023-02-22T09:08:08;100980.59;;;6.31;100.00
26043;BME280;13818;52.156;5.382;2023-02-22T09:10:35;100972.59;;;6.34;100.00
26043;BME280;13818;52.156;5.382;2023-02-22T09:13:02;100978.53;;;6.43;100.00
26043;BME280;13818;52.156;5.382;2023-02-22T09:15:32;100970.59;;;6.43;100.00
26043;BME280;13818;52.156;5.382;2023-02-22T09:18:00;100978.53;;;6.43;100.00
26043;BME280;13818;52.156;5.382;2023-02-22T09:20:27;100976.63;;;6.48;100.00
26043;BME280;13818;52.156;5.382;2023-02-22T09:22:54;100981.69;;;6.57;100.00
26043;BME280;13818;52.156;5.382;2023-02-22T09:25:21;100981.38;;;6.70;100.00
26043;BME280;13818;52.156;5.382;2023-02-22T09:27:49;100984.91;;;6.68;100.00
26043;BME280;13818;52.156;5.382;2023-02-22T09:30:20;100981.94;;;6.79;100.00
26043;BME280;13818;52.156;5.382;2023-02-22T09:35:17;100974.84;;;6.81;100.00
26043;BME280;13818;52.156;5.382;2023-02-22T09:37:44;100976.47;;;6.86;100.00
26043;BME280;13818;52.156;5.382;2023-02-22T09:40:14;100975.53;;;6.88;100.00
26043;BME280;13818;52.156;5.382;2023-02-22T09:42:55;100967.34;;;6.96;100.00
26043;BME280;13818;52.156;5.382;2023-02-22T09:45:30;100972.56;;;6.99;100.00
26043;BME280;13818;52.156;5.382;2023-02-22T09:48:05;100959.38;;;6.97;100.00
26043;BME280;13818;52.156;5.382;2023-02-22T09:50:36;100951.38;;;6.99;100.00
26043;BME280;13818;52.156;5.382;2023-02-22T09:53:16;100955.72;;;7.02;100.00
26043;BME280;13818;52.156;5.382;2023-02-22T09:55:56;100944.03;;;7.09;100.00
26043;BME280;13818;52.156;5.382;2023-02-22T09:58:26;100938.56;;;7.13;100.00
26043;BME280;13818;52.156;5.382;2023-02-22T10:01:08;100942.09;;;7.14;100.00
26043;BME280;13818;52.156;5.382;2023-02-22T10:03:48;100933.06;;;7.21;100.00
26043;BME280;13818;52.156;5.382;2023-02-22T10:06:20;100939.88;;;7.28;100.00
26043;BME280;13818;52.156;5.382;2023-02-22T10:08:48;100936.00;;;7.39;100.00
26043;BME280;13818;52.156;5.382;2023-02-22T10:11:27;100932.22;;;7.19;100.00
26043;BME280;13818;52.156;5.382;2023-02-22T10:14:08;100916.13;;;7.25;100.00
26043;BME280;13818;52.156;5.382;2023-02-22T10:16:48;100915.75;;;7.38;100.00
26043;BME280;13818;52.156;5.382;2023-02-22T10:19:25;100917.78;;;7.56;100.00
26043;BME280;13818;52.156;5.382;2023-02-22T10:22:07;100922.25;;;7.82;100.00
26043;BME280;13818;52.156;5.382;2023-02-22T10:24:47;100932.81;;;8.11;100.00
26043;BME280;13818;52.156;5.382;2023-02-22T10:27:20;100929.41;;;8.33;100.00
26043;BME280;13818;52.156;5.382;2023-02-22T10:29:50;100922.34;;;8.31;100.00
26043;BME280;13818;52.156;5.382;2023-02-22T10:32:23;100922.19;;;8.36;100.00
26043;BME280;13818;52.156;5.382;2023-02-22T10:34:53;100930.47;;;8.27;100.00
26043;BME280;13818;52.156;5.382;2023-02-22T10:37:24;100922.28;;;8.33;100.00
26043;BME280;13818;52.156;5.382;2023-02-22T10:39:56;100919.47;;;8.38;100.00
26043;BME280;13818;52.156;5.382;2023-02-22T10:42:25;100920.59;;;8.57;100.00
26043;BME280;13818;52.156;5.382;2023-02-22T10:44:53;100912.72;;;8.78;100.00
26043;BME280;13818;52.156;5.382;2023-02-22T10:47:19;100918.66;;;8.85;100.00
26043;BME280;13818;52.156;5.382;2023-02-22T10:49:50;100916.78;;;8.88;100.00
26043;BME280;13818;52.156;5.382;2023-02-22T10:52:23;100929.16;;;8.89;100.00
26043;BME280;13818;52.156;5.382;2023-02-22T10:54:51;100928.00;;;8.97;100.00
26043;BME280;13818;52.156;5.382;2023-02-22T10:57:20;100919.44;;;8.88;100.00
26043;BME280;13818;52.156;5.382;2023-02-22T10:59:48;100930.06;;;8.88;100.00
26043;BME280;13818;52.156;5.382;2023-02-22T11:02:18;100920.28;;;9.12;100.00
26043;BME280;13818;52.156;5.382;2023-02-22T11:04:48;100910.53;;;9.13;100.00
26043;BME280;13818;52.156;5.382;2023-02-22T11:07:22;100913.63;;;9.24;100.00
26043;BME280;13818;52.156;5.382;2023-02-22T11:09:52;100902.94;;;9.02;100.00
26043;BME280;13818;52.156;5.382;2023-02-22T11:12:25;100894.56;;;9.13;100.00
26043;BME280;13818;52.156;5.382;2023-02-22T11:14:53;100898.41;;;9.28;100.00
26043;BME280;13818;52.156;5.382;2023-02-22T11:17:29;100907.81;;;9.37;100.00
26043;BME280;13818;52.156;5.382;2023-02-22T11:19:57;100894.53;;;9.37;100.00
26043;BME280;13818;52.156;5.382;2023-02-22T11:22:27;100901.53;;;9.38;100.00
26043;BME280;13818;52.156;5.382;2023-02-22T11:24:58;100892.41;;;9.23;100.00
26043;BME280;13818;52.156;5.382;2023-02-22T11:27:31;100896.38;;;9.35;100.00
26043;BME280;13818;52.156;5.382;2023-02-22T11:30:19;100890.22;;;9.33;100.00
26043;BME280;13818;52.156;5.382;2023-02-22T11:32:48;100892.31;;;9.47;100.00
26043;BME280;13818;52.156;5.382;2023-02-22T11:35:36;100898.97;;;9.58;100.00
26043;BME280;13818;52.156;5.382;2023-02-22T11:38:15;100902.97;;;9.69;100.00
26043;BME280;13818;52.156;5.382;2023-02-22T11:40:42;100898.06;;;9.80;100.00
26043;BME280;13818;52.156;5.382;2023-02-22T11:43:14;100893.22;;;9.90;100.00
26043;BME280;13818;52.156;5.382;2023-02-22T11:45:55;100894.22;;;10.08;100.00
26043;BME280;13818;52.156;5.382;2023-02-22T11:48:25;100882.75;;;10.06;100.00
26043;BME280;13818;52.156;5.382;2023-02-22T11:51:00;100894.81;;;9.94;100.00
26043;BME280;13818;52.156;5.382;2023-02-22T11:53:42;100878.50;;;10.02;100.00
26043;BME280;13818;52.156;5.382;2023-02-22T11:56:15;100880.75;;;10.11;100.00
26043;BME280;13818;52.156;5.382;2023-02-22T11:58:47;100870.06;;;10.13;100.00
26043;BME280;13818;52.156;5.382;2023-02-22T12:01:22;100872.03;;;10.28;100.00
26043;BME280;13818;52.156;5.382;2023-02-22T12:04:16;100866.97;;;10.22;100.00
26043;BME280;13818;52.156;5.382;2023-02-22T12:06:51;100871.97;;;10.30;100.00
26043;BME280;13818;52.156;5.382;2023-02-22T12:09:27;100870.72;;;10.38;100.00
26043;BME280;13818;52.156;5.382;2023-02-22T12:12:07;100870.53;;;10.43;100.00
26043;BME280;13818;52.156;5.382;2023-02-22T12:14:41;100862.88;;;10.34;100.00
26043;BME280;13818;52.156;5.382;2023-02-22T12:17:32;100865.88;;;10.28;100.00
26043;BME280;13818;52.156;5.382;2023-02-22T12:20:13;100864.63;;;10.35;100.00
26043;BME280;13818;52.156;5.382;2023-02-22T12:22:52;100870.72;;;10.18;100.00
26043;BME280;13818;52.156;5.382;2023-02-22T12:25:24;100866.56;;;10.52;100.00
26043;BME280;13818;52.156;5.382;2023-02-22T12:27:56;100859.94;;;10.41;100.00
26043;BME280;13818;52.156;5.382;2023-02-22T12:30:26;100862.03;;;10.54;100.00
26043;BME280;13818;52.156;5.382;2023-02-22T12:32:57;100860.53;;;10.48;100.00
26043;BME280;13818;52.156;5.382;2023-02-22T12:35:26;100853.38;;;10.49;100.00
26043;BME280;13818;52.156;5.382;2023-02-22T12:38:02;100851.31;;;10.55;100.00
26043;BME280;13818;52.156;5.382;2023-02-22T12:40:35;100852.03;;;10.59;100.00
26043;BME280;13818;52.156;5.382;2023-02-22T12:43:09;100852.25;;;10.54;100.00
26043;BME280;13818;52.156;5.382;2023-02-22T12:45:45;100847.72;;;10.56;100.00
26043;BME280;13818;52.156;5.382;2023-02-22T12:48:28;100841.03;;;10.86;100.00
26043;BME280;13818;52.156;5.382;2023-02-22T12:51:06;100837.78;;;10.98;100.00
26043;BME280;13818;52.156;5.382;2023-02-22T12:53:40;100833.09;;;11.03;100.00
26043;BME280;13818;52.156;5.382;2023-02-22T12:56:20;100837.78;;;10.79;100.00
26043;BME280;13818;52.156;5.382;2023-02-22T12:58:54;100844.97;;;10.96;100.00
26043;BME280;13818;52.156;5.382;2023-02-22T13:01:26;100836.09;;;11.15;100.00
26043;BME280;13818;52.156;5.382;2023-02-22T13:03:54;100830.34;;;11.05;100.00
26043;BME280;13818;52.156;5.382;2023-02-22T13:06:34;100823.13;;;11.07;100.00